Time;durP1;ratioP1;P1;durP2;ratioP2;P2;SDS_P1;SDS_P2;PMS_P1;PMS_P2;Temp;Humidity;BMP_temperature;BMP_pressure;BME280_temperature;BME280_humidity;BME280_pressure;Samples;Min_cycle;Max_cycle;Signal;HPM_P1;HPM_P2
2023/12/29 00:02:20;;;;;;;5.20;1.60;;;7.40;99.90;;;;;;4999881;28;20044;-84
2023/12/29 00:04:45;;;;;;;2.53;1.43;;;7.40;99.90;;;;;;4999533;28;20969;-84
2023/12/29 00:07:11;;;;;;;4.70;1.90;;;7.40;99.90;;;;;;4998882;28;20030;-85
2023/12/29 00:09:40;;;;;;;3.63;2.10;;;7.40;99.90;;;;;;5000134;28;20100;-84
2023/12/29 00:12:06;;;;;;;3.20;1.83;;;7.30;99.90;;;;;;5000074;28;20033;-84
2023/12/29 00:14:32;;;;;;;3.63;2.40;;;7.30;99.90;;;;;;4999243;28;20038;-84
2023/12/29 00:16:58;;;;;;;3.67;2.10;;;7.30;99.90;;;;;;4996538;28;20031;-84
2023/12/29 00:19:23;;;;;;;2.77;1.80;;;7.30;99.90;;;;;;4994964;28;20034;-84
2023/12/29 00:21:49;;;;;;;5.43;1.93;;;7.20;99.90;;;;;;4995473;28;20507;-85
2023/12/29 00:24:14;;;;;;;2.63;1.77;;;7.20;99.90;;;;;;4995776;28;20034;-84
2023/12/29 00:26:40;;;;;;;3.87;1.90;;;7.20;99.90;;;;;;4995218;28;20102;-84
2023/12/29 00:29:06;;;;;;;2.47;1.70;;;7.10;99.90;;;;;;4978187;28;20061;-84
2023/12/29 00:31:32;;;;;;;2.67;1.80;;;7.20;99.90;;;;;;4996747;28;20030;-84
2023/12/29 00:33:57;;;;;;;2.80;1.80;;;7.10;99.90;;;;;;4995788;28;20045;-84
2023/12/29 00:36:23;;;;;;;2.37;1.43;;;7.10;99.90;;;;;;4995510;28;20038;-84
2023/12/29 00:38:49;;;;;;;3.60;1.80;;;7.10;99.90;;;;;;4978887;28;20056;-84
2023/12/29 00:41:15;;;;;;;3.80;1.67;;;7.10;99.90;;;;;;4994175;28;20062;-84
2023/12/29 00:43:40;;;;;;;2.30;1.60;;;7.10;99.90;;;;;;4994991;28;20035;-84
2023/12/29 00:46:06;;;;;;;2.90;1.60;;;7.10;99.90;;;;;;4995015;28;20034;-84
2023/12/29 00:48:32;;;;;;;2.40;1.47;;;7.10;99.90;;;;;;4978198;28;20041;-84
2023/12/29 00:50:57;;;;;;;3.63;1.67;;;7.20;99.90;;;;;;4995474;28;20030;-84
2023/12/29 00:53:23;;;;;;;2.50;1.50;;;7.20;99.90;;;;;;4995320;28;20089;-84
2023/12/29 00:55:49;;;;;;;2.03;1.50;;;7.20;99.90;;;;;;4993545;28;20499;-84
2023/12/29 00:58:14;;;;;;;2.30;1.50;;;7.20;99.90;;;;;;4995089;28;20034;-85
2023/12/29 01:00:40;;;;;;;2.47;1.67;;;7.30;99.90;;;;;;4994890;28;20042;-84
2023/12/29 01:03:05;;;;;;;2.40;1.40;;;7.30;99.90;;;;;;4995258;28;20037;-84
2023/12/29 01:05:31;;;;;;;2.30;1.50;;;7.40;99.90;;;;;;4994718;28;21239;-84
2023/12/29 01:07:56;;;;;;;3.43;1.60;;;7.40;99.90;;;;;;4975826;28;21018;-84
2023/12/29 01:10:22;;;;;;;1.87;1.40;;;7.40;99.90;;;;;;4994301;28;20073;-84
2023/12/29 01:12:47;;;;;;;2.53;1.60;;;7.40;99.90;;;;;;4995325;28;20031;-84
2023/12/29 01:15:13;;;;;;;2.50;1.30;;;7.40;99.90;;;;;;4996082;28;20118;-84
2023/12/29 01:17:39;;;;;;;2.87;1.63;;;7.40;99.90;;;;;;4994991;28;20034;-84
2023/12/29 01:20:04;;;;;;;1.90;1.50;;;7.30;99.90;;;;;;4995042;28;20089;-84
2023/12/29 01:22:30;;;;;;;2.00;1.50;;;7.30;99.90;;;;;;4995131;28;20030;-84
2023/12/29 01:24:58;;;;;;;3.40;1.60;;;7.40;99.90;;;;;;4994844;28;20034;-84
2023/12/29 01:27:24;;;;;;;2.57;1.73;;;7.30;99.90;;;;;;4994910;28;20481;-84
2023/12/29 01:29:49;;;;;;;3.17;1.57;;;7.30;99.90;;;;;;4994947;28;20045;-84
2023/12/29 01:32:15;;;;;;;2.03;1.30;;;7.30;99.90;;;;;;4995668;28;20045;-84
2023/12/29 01:34:40;;;;;;;2.60;1.63;;;7.30;99.90;;;;;;4995444;28;20050;-85
2023/12/29 01:37:06;;;;;;;2.23;1.60;;;7.30;99.90;;;;;;4994759;28;20027;-84
2023/12/29 01:39:33;;;;;;;5.40;1.70;;;7.30;99.90;;;;;;4995364;28;20027;-84
2023/12/29 01:41:59;;;;;;;4.87;2.00;;;7.20;99.90;;;;;;4996427;28;20124;-84
2023/12/29 01:44:24;;;;;;;2.50;1.73;;;7.20;99.90;;;;;;4994128;28;20048;-84
2023/12/29 01:46:53;;;;;;;2.97;1.93;;;7.20;99.90;;;;;;4993226;28;21360;-84
2023/12/29 01:49:20;;;;;;;2.30;1.80;;;7.20;99.90;;;;;;4996130;28;20094;-84
2023/12/29 01:51:50;;;;;;;3.27;1.60;;;7.20;99.90;;;;;;4994961;28;20036;-84
2023/12/29 01:54:17;;;;;;;3.00;1.70;;;7.20;99.90;;;;;;4978805;28;20618;-84
2023/12/29 01:56:43;;;;;;;2.53;1.73;;;7.10;99.90;;;;;;4994824;28;20092;-84
2023/12/29 01:59:09;;;;;;;2.03;1.60;;;7.10;99.90;;;;;;4995156;28;20022;-84
2023/12/29 02:01:37;;;;;;;2.13;1.63;;;7.00;99.90;;;;;;4995290;28;20112;-84
2023/12/29 02:04:03;;;;;;;2.30;1.50;;;7.00;99.90;;;;;;4995845;28;20037;-84
2023/12/29 02:06:29;;;;;;;2.17;1.67;;;7.00;99.90;;;;;;4994752;28;20377;-84
2023/12/29 02:08:55;;;;;;;3.30;1.90;;;6.90;99.90;;;;;;4994323;28;20038;-84
2023/12/29 02:11:20;;;;;;;3.13;1.70;;;6.90;99.90;;;;;;4994241;28;20038;-84
2023/12/29 02:13:46;;;;;;;2.93;2.03;;;6.80;99.90;;;;;;4994011;28;20026;-84
2023/12/29 02:16:34;;;;;;;3.43;2.10;;;6.80;99.90;;;;;;4993433;28;20026;-84
2023/12/29 02:19:04;;;;;;;3.47;1.97;;;6.70;99.90;;;;;;4952521;28;20046;-84
2023/12/29 02:21:29;;;;;;;4.90;1.80;;;6.70;99.90;;;;;;4976965;28;20058;-84
2023/12/29 02:23:55;;;;;;;4.40;2.00;;;6.70;99.90;;;;;;4994555;28;20037;-84
2023/12/29 02:26:23;;;;;;;2.70;2.00;;;6.60;99.90;;;;;;4993331;28;20034;-84
2023/12/29 02:28:59;;;;;;;2.63;2.00;;;6.50;99.90;;;;;;4993451;28;20030;-84
2023/12/29 02:31:29;;;;;;;3.73;1.90;;;6.50;99.90;;;;;;4993693;28;20034;-84
2023/12/29 02:33:55;;;;;;;3.63;2.10;;;6.50;99.90;;;;;;4994234;28;20061;-84
2023/12/29 02:36:23;;;;;;;4.27;2.30;;;6.50;99.90;;;;;;4994925;28;20022;-84
2023/12/29 02:38:49;;;;;;;8.73;2.23;;;6.50;99.90;;;;;;4996593;28;20137;-84
2023/12/29 02:41:15;;;;;;;4.77;2.03;;;6.50;99.90;;;;;;4994711;28;20038;-85
2023/12/29 02:43:40;;;;;;;5.70;2.73;;;6.50;99.90;;;;;;4977625;28;20030;-84
2023/12/29 02:46:06;;;;;;;3.50;1.80;;;6.50;99.90;;;;;;4992691;28;20104;-84
2023/12/29 02:48:31;;;;;;;3.33;2.13;;;6.50;99.90;;;;;;4994002;28;20109;-84
2023/12/29 02:50:57;;;;;;;2.73;2.00;;;6.60;99.90;;;;;;4992647;28;20096;-84
2023/12/29 02:53:22;;;;;;;4.47;2.60;;;6.60;99.90;;;;;;4993374;28;20072;-84
2023/12/29 02:55:48;;;;;;;4.30;2.23;;;6.60;99.90;;;;;;4992277;28;20026;-84
2023/12/29 02:58:13;;;;;;;4.27;2.30;;;6.60;99.90;;;;;;4993916;28;20104;-84
2023/12/29 03:00:39;;;;;;;3.13;2.17;;;6.60;99.90;;;;;;4993866;28;20103;-84
2023/12/29 03:03:05;;;;;;;3.53;2.20;;;6.60;99.90;;;;;;4993134;28;20039;-84
2023/12/29 03:05:30;;;;;;;4.87;2.30;;;6.60;99.90;;;;;;4993964;28;20045;-84
2023/12/29 03:07:57;;;;;;;4.17;2.00;;;6.60;99.90;;;;;;4992713;28;20063;-84
2023/12/29 03:10:23;;;;;;;3.27;2.00;;;6.60;99.90;;;;;;4975553;28;20135;-85
2023/12/29 03:12:48;;;;;;;3.00;2.00;;;6.60;99.90;;;;;;4978320;28;20936;-84
2023/12/29 03:15:14;;;;;;;3.73;1.90;;;6.60;99.90;;;;;;4993036;28;20188;-84
2023/12/29 03:17:40;;;;;;;4.83;2.27;;;6.60;99.90;;;;;;4992282;28;20025;-85
2023/12/29 03:20:07;;;;;;;3.33;2.30;;;6.60;99.90;;;;;;4994483;28;20034;-84
2023/12/29 03:22:33;;;;;;;3.10;2.00;;;6.60;99.90;;;;;;4998431;28;20034;-84
2023/12/29 03:24:58;;;;;;;5.80;2.20;;;6.60;99.90;;;;;;5006175;28;20026;-84
2023/12/29 03:27:24;;;;;;;3.23;2.00;;;6.60;99.90;;;;;;5006064;28;20307;-84
2023/12/29 03:29:49;;;;;;;3.30;2.00;;;6.50;99.90;;;;;;4990903;28;20077;-84
2023/12/29 03:32:15;;;;;;;3.50;1.90;;;6.50;99.90;;;;;;5001190;28;20181;-84
2023/12/29 03:34:41;;;;;;;2.67;1.77;;;6.40;99.90;;;;;;4993028;28;20050;-84
2023/12/29 03:37:06;;;;;;;4.57;1.93;;;6.40;99.90;;;;;;4992854;28;20073;-84
2023/12/29 03:39:35;;;;;;;4.73;2.40;;;6.40;99.90;;;;;;4991865;28;20018;-84
2023/12/29 03:42:01;;;;;;;12.40;3.67;;;6.40;99.90;;;;;;4992704;28;20450;-84
2023/12/29 03:44:26;;;;;;;2.50;1.70;;;6.30;99.90;;;;;;4991981;28;20117;-84
2023/12/29 03:46:52;;;;;;;4.13;2.23;;;6.30;99.90;;;;;;4992319;28;20030;-84
2023/12/29 03:49:17;;;;;;;4.80;2.00;;;6.30;99.90;;;;;;4992100;28;20062;-85
2023/12/29 03:51:43;;;;;;;2.87;2.10;;;6.40;99.90;;;;;;4993135;28;20022;-84
2023/12/29 03:54:08;;;;;;;4.37;2.30;;;6.40;99.90;;;;;;4997141;28;20057;-84
2023/12/29 03:56:34;;;;;;;4.93;2.10;;;6.40;99.90;;;;;;4996297;28;20413;-84
2023/12/29 03:58:59;;;;;;;2.73;1.93;;;6.50;99.90;;;;;;4996049;28;20022;-84
2023/12/29 04:01:25;;;;;;;3.47;2.20;;;6.50;99.90;;;;;;4995891;28;20038;-84
2023/12/29 04:03:50;;;;;;;3.10;2.07;;;6.60;99.90;;;;;;4996273;28;20031;-84
2023/12/29 04:06:16;;;;;;;5.67;1.80;;;6.60;99.90;;;;;;4995341;28;20033;-84
2023/12/29 04:08:41;;;;;;;4.00;2.00;;;6.70;99.90;;;;;;4995883;28;20035;-84
2023/12/29 04:11:08;;;;;;;2.60;1.70;;;6.70;99.90;;;;;;4996157;28;20114;-85
2023/12/29 04:13:34;;;;;;;4.00;2.20;;;6.80;99.90;;;;;;4996622;28;20101;-84
2023/12/29 04:16:00;;;;;;;3.23;2.00;;;6.90;99.90;;;;;;4996261;28;20032;-84
2023/12/29 04:18:26;;;;;;;5.27;2.00;;;7.00;99.90;;;;;;4995674;28;20405;-85
2023/12/29 04:20:51;;;;;;;5.50;2.10;;;7.00;99.90;;;;;;4995171;28;20030;-84
2023/12/29 04:23:17;;;;;;;6.17;2.27;;;7.00;99.90;;;;;;4995616;28;20058;-84
2023/12/29 04:25:42;;;;;;;3.57;2.00;;;7.10;99.90;;;;;;4996058;28;20104;-85
2023/12/29 04:28:08;;;;;;;4.67;2.30;;;7.10;99.90;;;;;;4996865;28;20061;-84
2023/12/29 04:30:35;;;;;;;3.10;1.90;;;7.20;99.90;;;;;;4995501;28;20030;-84
2023/12/29 04:33:00;;;;;;;3.20;2.00;;;7.20;99.90;;;;;;4996064;28;20033;-84
2023/12/29 04:35:26;;;;;;;4.30;2.17;;;7.30;99.90;;;;;;4995192;28;20019;-84
2023/12/29 04:37:52;;;;;;;3.60;2.07;;;7.40;99.90;;;;;;4995764;28;20645;-85
2023/12/29 04:40:17;;;;;;;3.77;2.17;;;7.40;99.90;;;;;;4996339;28;20110;-85
2023/12/29 04:42:43;;;;;;;4.03;2.00;;;7.40;99.90;;;;;;4995915;28;21473;-85
2023/12/29 04:45:10;;;;;;;3.30;2.07;;;7.50;99.90;;;;;;4995440;28;20042;-84
2023/12/29 04:47:35;;;;;;;3.13;2.30;;;7.50;99.90;;;;;;4995841;28;20101;-84
2023/12/29 04:50:01;;;;;;;4.20;2.10;;;7.60;99.90;;;;;;4997386;28;20817;-84
2023/12/29 04:52:27;;;;;;;4.70;2.00;;;7.70;99.90;;;;;;4997170;28;20030;-85
2023/12/29 04:54:52;;;;;;;3.67;2.20;;;7.70;99.90;;;;;;4997412;28;20045;-84
2023/12/29 04:57:18;;;;;;;3.93;1.97;;;7.80;99.90;;;;;;4995817;28;20144;-85
2023/12/29 04:59:43;;;;;;;5.13;1.90;;;7.80;99.90;;;;;;4995363;28;20076;-84
2023/12/29 05:02:09;;;;;;;3.70;2.10;;;7.80;99.90;;;;;;4994227;28;20562;-85
2023/12/29 05:04:35;;;;;;;5.13;2.20;;;7.90;99.90;;;;;;4995684;28;20026;-85
2023/12/29 05:07:00;;;;;;;4.10;2.20;;;8.00;99.90;;;;;;4995885;28;20061;-85
2023/12/29 05:09:25;;;;;;;3.63;2.20;;;8.10;99.90;;;;;;4994339;28;20037;-84
2023/12/29 05:11:51;;;;;;;3.17;1.90;;;8.20;99.90;;;;;;4995034;28;20069;-84
2023/12/29 05:14:17;;;;;;;2.53;2.00;;;8.30;99.90;;;;;;4994352;28;20484;-84
2023/12/29 05:16:42;;;;;;;3.50;2.20;;;8.30;99.90;;;;;;4976469;28;20117;-84
2023/12/29 05:19:08;;;;;;;3.33;1.97;;;8.40;99.90;;;;;;4995737;28;20189;-84
2023/12/29 05:21:34;;;;;;;4.80;2.13;;;8.40;99.90;;;;;;4994084;28;20792;-84
2023/12/29 05:23:59;;;;;;;3.50;2.30;;;8.40;99.90;;;;;;4993042;28;20026;-84
2023/12/29 05:26:25;;;;;;;5.03;2.10;;;8.40;99.90;;;;;;4992099;28;20033;-84
2023/12/29 05:28:51;;;;;;;4.47;2.13;;;8.40;99.90;;;;;;4992843;28;20036;-84
2023/12/29 05:31:16;;;;;;;6.77;2.33;;;8.50;99.90;;;;;;4993260;28;20053;-84
2023/12/29 05:33:42;;;;;;;3.60;2.10;;;8.50;99.90;;;;;;4993022;28;20042;-84
2023/12/29 05:36:09;;;;;;;3.73;2.60;;;8.60;99.90;;;;;;4992451;28;20065;-84
2023/12/29 05:38:35;;;;;;;3.57;2.23;;;8.60;99.90;;;;;;4996505;28;20777;-85
2023/12/29 05:41:04;;;;;;;4.00;2.30;;;8.60;99.90;;;;;;4999063;28;20112;-84
2023/12/29 05:43:34;;;;;;;4.33;2.20;;;8.70;99.90;;;;;;4981414;28;20169;-84
2023/12/29 05:46:00;;;;;;;4.17;2.50;;;8.70;99.90;;;;;;4980318;28;20030;-84
2023/12/29 05:48:26;;;;;;;3.07;2.00;;;8.70;99.90;;;;;;4999480;28;20037;-84
2023/12/29 05:50:52;;;;;;;3.57;2.37;;;8.70;99.90;;;;;;4997703;28;20030;-84
2023/12/29 05:53:17;;;;;;;4.23;2.20;;;8.70;99.90;;;;;;4995552;28;20026;-85
2023/12/29 05:55:44;;;;;;;2.83;2.00;;;8.80;99.90;;;;;;4994689;28;20121;-84
2023/12/29 05:58:10;;;;;;;4.70;2.10;;;8.90;99.90;;;;;;4992513;28;20486;-84
2023/12/29 06:00:39;;;;;;;2.87;2.17;;;9.00;99.90;;;;;;4993641;28;20041;-84
2023/12/29 06:03:05;;;;;;;5.17;2.10;;;8.90;99.90;;;;;;4994382;28;21115;-83
2023/12/29 06:05:32;;;;;;;3.07;2.00;;;8.90;99.90;;;;;;4995031;28;20113;-86
2023/12/29 06:07:58;;;;;;;6.17;2.40;;;8.90;99.90;;;;;;4998456;28;20038;-85
2023/12/29 06:10:23;;;;;;;3.73;2.10;;;8.90;99.90;;;;;;4992317;28;20108;-76
2023/12/29 06:12:49;;;;;;;2.93;1.97;;;8.80;99.90;;;;;;4986917;28;20049;-73
2023/12/29 06:15:15;;;;;;;6.50;2.40;;;8.80;99.90;;;;;;4985460;28;20489;-87
2023/12/29 06:17:41;;;;;;;6.73;2.43;;;8.80;99.90;;;;;;4997142;28;20030;-84
2023/12/29 06:20:08;;;;;;;4.27;2.53;;;8.70;99.90;;;;;;5001083;28;20097;-85
2023/12/29 06:22:33;;;;;;;4.10;1.80;;;8.70;99.90;;;;;;4999290;28;20039;-86
2023/12/29 06:24:59;;;;;;;4.97;2.10;;;8.60;99.90;;;;;;4998753;28;20066;-85
2023/12/29 06:27:25;;;;;;;4.60;1.90;;;8.60;99.90;;;;;;5000045;28;20592;-85
2023/12/29 06:29:51;;;;;;;4.23;2.30;;;8.70;99.90;;;;;;5001896;28;20081;-85
2023/12/29 06:32:16;;;;;;;2.80;2.00;;;8.70;99.90;;;;;;5000579;28;20022;-85
2023/12/29 06:34:42;;;;;;;3.33;2.07;;;8.60;99.90;;;;;;4996776;28;20034;-85
2023/12/29 06:37:07;;;;;;;4.10;2.10;;;8.60;99.90;;;;;;4994144;28;20615;-85
2023/12/29 06:39:33;;;;;;;3.40;2.13;;;8.60;99.90;;;;;;4994066;28;20691;-85
2023/12/29 06:41:58;;;;;;;4.03;2.20;;;8.50;99.90;;;;;;4993903;28;20152;-85
2023/12/29 06:44:24;;;;;;;3.00;1.90;;;8.50;99.90;;;;;;4993989;28;20114;-85
2023/12/29 06:46:49;;;;;;;4.23;2.10;;;8.40;99.90;;;;;;4993388;28;20786;-85
2023/12/29 06:49:15;;;;;;;2.63;1.90;;;8.40;99.90;;;;;;4993820;28;20031;-85
2023/12/29 06:51:41;;;;;;;3.83;2.20;;;8.40;99.90;;;;;;4993732;28;20041;-85
2023/12/29 06:54:07;;;;;;;4.83;2.03;;;8.40;99.90;;;;;;4994065;28;20026;-84
2023/12/29 06:56:32;;;;;;;4.83;2.37;;;8.40;99.90;;;;;;4975852;28;20058;-85
2023/12/29 06:58:58;;;;;;;2.50;1.77;;;8.40;99.90;;;;;;4995207;28;20057;-85
2023/12/29 07:01:24;;;;;;;3.67;1.80;;;8.40;99.90;;;;;;4994500;28;20033;-84
2023/12/29 07:03:50;;;;;;;3.63;2.00;;;8.40;99.90;;;;;;4994502;28;20038;-85
2023/12/29 07:06:15;;;;;;;4.93;1.90;;;8.40;99.90;;;;;;4977048;28;20045;-85
2023/12/29 07:08:41;;;;;;;3.77;1.80;;;8.40;99.90;;;;;;4994355;28;20057;-85
2023/12/29 07:11:11;;;;;;;2.80;1.70;;;8.50;99.90;;;;;;4996553;28;20034;-84
2023/12/29 07:13:37;;;;;;;3.97;1.70;;;8.60;99.90;;;;;;4995226;28;20022;-84
2023/12/29 07:16:02;;;;;;;2.30;1.80;;;8.70;99.90;;;;;;5000182;28;20136;-85
2023/12/29 07:18:28;;;;;;;2.87;1.67;;;8.70;99.90;;;;;;4996597;28;20065;-85
2023/12/29 07:20:53;;;;;;;3.90;1.70;;;8.80;99.90;;;;;;5001069;28;20093;-84
2023/12/29 07:23:19;;;;;;;2.80;1.57;;;8.90;99.90;;;;;;5003667;28;20034;-85
2023/12/29 07:25:44;;;;;;;2.80;2.00;;;8.90;99.90;;;;;;4982228;28;20045;-85
2023/12/29 07:28:10;;;;;;;3.30;1.60;;;9.00;99.90;;;;;;5000526;28;20053;-85
2023/12/29 07:30:35;;;;;;;2.93;1.73;;;9.10;99.90;;;;;;5000236;28;20059;-85
2023/12/29 07:33:02;;;;;;;3.10;1.80;;;9.10;99.90;;;;;;4999655;28;20068;-84
2023/12/29 07:35:27;;;;;;;2.17;1.60;;;9.10;99.90;;;;;;4997170;28;20030;-84
2023/12/29 07:37:53;;;;;;;3.13;1.50;;;9.10;99.90;;;;;;5000019;28;20060;-84
2023/12/29 07:40:18;;;;;;;2.70;1.40;;;9.10;99.90;;;;;;5001308;28;21090;-84
2023/12/29 07:42:50;;;;;;;2.50;1.83;;;9.10;99.90;;;;;;4983683;28;20093;-84
2023/12/29 07:45:15;;;;;;;3.33;1.80;;;9.10;99.90;;;;;;5001625;28;20030;-84
2023/12/29 07:47:41;;;;;;;2.43;1.80;;;9.10;99.90;;;;;;5000607;28;20523;-84
2023/12/29 07:50:07;;;;;;;3.67;2.13;;;9.10;99.90;;;;;;5001616;28;20121;-84
2023/12/29 07:52:32;;;;;;;2.43;1.53;;;9.10;99.90;;;;;;4998999;28;20473;-85
2023/12/29 07:54:58;;;;;;;2.17;1.80;;;9.10;99.90;;;;;;5000489;28;20164;-85
2023/12/29 07:57:23;;;;;;;2.93;2.00;;;9.10;99.90;;;;;;4998988;28;20491;-84
2023/12/29 07:59:49;;;;;;;4.07;1.70;;;9.00;99.90;;;;;;4999520;28;20066;-84
2023/12/29 08:02:14;;;;;;;3.07;2.03;;;9.00;99.90;;;;;;4997768;28;20045;-84
2023/12/29 08:04:40;;;;;;;2.93;1.93;;;8.90;99.90;;;;;;4992411;28;20034;-84
2023/12/29 08:07:05;;;;;;;3.40;1.87;;;8.90;99.90;;;;;;4997256;28;20021;-84
2023/12/29 08:09:31;;;;;;;3.53;2.03;;;8.90;99.90;;;;;;4998743;28;20077;-84
2023/12/29 08:11:56;;;;;;;2.73;1.93;;;8.90;99.90;;;;;;4997606;28;20026;-84
2023/12/29 08:14:22;;;;;;;2.60;1.90;;;8.80;99.90;;;;;;4998712;28;20041;-84
2023/12/29 08:16:47;;;;;;;2.80;1.80;;;8.80;99.90;;;;;;4979320;28;20049;-83
2023/12/29 08:19:15;;;;;;;4.10;2.03;;;8.80;99.90;;;;;;4978666;28;21089;-84
2023/12/29 08:21:40;;;;;;;3.90;1.90;;;8.70;99.90;;;;;;4995244;28;20050;-84
2023/12/29 08:24:06;;;;;;;4.93;2.03;;;8.70;99.90;;;;;;4995894;28;20122;-84
2023/12/29 08:26:32;;;;;;;3.03;2.13;;;8.70;99.90;;;;;;4994576;28;20037;-84
2023/12/29 08:28:57;;;;;;;3.27;1.83;;;8.60;99.90;;;;;;4996201;28;20030;-84
2023/12/29 08:31:23;;;;;;;4.13;2.23;;;8.60;99.90;;;;;;4979190;28;20213;-84
2023/12/29 08:33:49;;;;;;;2.83;1.97;;;8.50;99.90;;;;;;4978631;28;20105;-84
2023/12/29 08:36:18;;;;;;;4.10;2.30;;;8.60;99.90;;;;;;4977377;28;20048;-85
2023/12/29 08:38:44;;;;;;;3.90;2.00;;;8.50;99.90;;;;;;4994634;28;20042;-84
2023/12/29 08:41:09;;;;;;;4.30;2.00;;;8.50;99.90;;;;;;4996279;28;20030;-84
2023/12/29 08:43:36;;;;;;;3.40;2.27;;;8.50;99.90;;;;;;4977775;28;20053;-84
2023/12/29 08:46:02;;;;;;;4.40;2.50;;;8.60;99.90;;;;;;4993749;28;20452;-84
2023/12/29 08:48:27;;;;;;;5.67;2.30;;;8.60;99.90;;;;;;4995000;28;20080;-85
2023/12/29 08:50:53;;;;;;;3.73;2.10;;;8.60;99.90;;;;;;4997106;28;20075;-84
2023/12/29 08:53:19;;;;;;;4.80;2.57;;;8.70;99.90;;;;;;4996530;28;20036;-84
2023/12/29 08:55:44;;;;;;;5.27;2.30;;;8.70;99.90;;;;;;4996443;28;20034;-84
2023/12/29 08:58:10;;;;;;;3.77;2.10;;;8.80;99.90;;;;;;4996503;28;20039;-84
2023/12/29 09:00:35;;;;;;;5.80;2.20;;;8.80;99.90;;;;;;4996696;28;20057;-83
2023/12/29 09:03:01;;;;;;;3.43;2.10;;;8.80;99.90;;;;;;4996954;28;20023;-83
2023/12/29 09:05:26;;;;;;;4.77;1.90;;;8.80;99.90;;;;;;4997191;28;20030;-83
2023/12/29 09:07:52;;;;;;;3.10;2.00;;;8.90;99.90;;;;;;4997465;28;20054;-84
2023/12/29 09:10:18;;;;;;;2.87;1.90;;;8.90;99.90;;;;;;4998269;28;20107;-84
2023/12/29 09:12:43;;;;;;;3.63;1.90;;;9.00;99.90;;;;;;4996636;28;20030;-84
2023/12/29 09:15:09;;;;;;;2.93;2.07;;;9.10;99.90;;;;;;4995804;28;20137;-84
2023/12/29 09:17:35;;;;;;;2.93;1.90;;;9.10;99.90;;;;;;4996461;28;20045;-84
2023/12/29 09:20:01;;;;;;;4.47;1.80;;;9.20;99.90;;;;;;4997030;28;20045;-84
2023/12/29 09:22:26;;;;;;;7.63;2.53;;;9.20;99.90;;;;;;4980382;28;20028;-84
2023/12/29 09:24:55;;;;;;;3.33;1.90;;;9.30;99.90;;;;;;4996285;28;20034;-84
2023/12/29 09:27:21;;;;;;;4.67;1.87;;;9.30;99.90;;;;;;4998816;28;20084;-84
2023/12/29 09:29:47;;;;;;;2.30;1.60;;;9.40;99.90;;;;;;4998390;28;20156;-85
2023/12/29 09:32:12;;;;;;;2.97;1.67;;;9.40;99.90;;;;;;4999331;28;20030;-84
2023/12/29 09:34:38;;;;;;;3.87;1.63;;;9.50;99.90;;;;;;4998742;28;20033;-84
2023/12/29 09:37:03;;;;;;;3.30;1.77;;;9.50;99.90;;;;;;5001185;28;20096;-84
2023/12/29 09:39:29;;;;;;;2.53;1.60;;;9.60;99.90;;;;;;5000045;28;20030;-85
2023/12/29 09:41:58;;;;;;;3.70;2.00;;;9.70;99.90;;;;;;5000314;28;20042;-84
2023/12/29 09:44:25;;;;;;;2.53;1.60;;;9.70;99.90;;;;;;5002509;28;20110;-84
2023/12/29 09:46:54;;;;;;;2.83;1.90;;;9.70;99.90;;;;;;4995269;28;20041;-84
2023/12/29 09:49:20;;;;;;;4.37;1.70;;;9.80;99.90;;;;;;4996876;28;20050;-84
2023/12/29 09:51:46;;;;;;;2.67;1.70;;;9.80;99.90;;;;;;4995498;28;20775;-84
2023/12/29 09:54:13;;;;;;;2.40;1.50;;;9.80;99.90;;;;;;4996362;28;20109;-84
2023/12/29 09:56:39;;;;;;;1.97;1.60;;;9.90;99.90;;;;;;4997911;28;20026;-84
2023/12/29 09:59:08;;;;;;;2.80;1.60;;;9.90;99.90;;;;;;4996249;28;20098;-84
2023/12/29 10:01:34;;;;;;;4.60;1.60;;;10.00;99.90;;;;;;4998128;28;20060;-84
2023/12/29 10:04:01;;;;;;;2.03;1.50;;;10.00;99.90;;;;;;4998083;28;20038;-84
2023/12/29 10:06:30;;;;;;;2.97;1.73;;;10.10;99.90;;;;;;4996633;28;20038;-83
2023/12/29 10:08:57;;;;;;;2.47;1.73;;;10.10;99.90;;;;;;4998708;28;20037;-84
2023/12/29 10:11:24;;;;;;;3.70;1.50;;;10.10;99.90;;;;;;4999227;28;20041;-84
2023/12/29 10:13:52;;;;;;;2.87;1.50;;;10.20;99.90;;;;;;4998912;28;20045;-84
2023/12/29 10:16:38;;;;;;;2.20;1.67;;;10.20;99.90;;;;;;4998725;28;20532;-84
2023/12/29 10:19:30;;;;;;;3.00;1.73;;;10.20;99.90;;;;;;4999917;28;20040;-84
2023/12/29 10:22:08;;;;;;;2.23;1.40;;;10.20;99.90;;;;;;5000200;28;20033;-84
2023/12/29 10:24:34;;;;;;;2.50;1.33;;;10.30;99.90;;;;;;4995934;28;20053;-84
2023/12/29 10:27:00;;;;;;;2.50;1.20;;;10.20;99.90;;;;;;4994174;28;20034;-84
2023/12/29 10:29:27;;;;;;;2.40;1.00;;;10.30;99.90;;;;;;4996914;28;20034;-84
2023/12/29 10:31:53;;;;;;;5.00;1.50;;;10.30;99.90;;;;;;4996852;28;20094;-84
2023/12/29 10:34:28;;;;;;;2.10;1.60;;;10.20;99.90;;;;;;4997232;28;20149;-84
2023/12/29 10:36:54;;;;;;;;;;;10.20;99.90;;;;;;4999113;28;20040;-85
2023/12/29 10:39:19;;;;;;;1.47;1.10;;;10.10;99.90;;;;;;4995185;28;19920;-84
2023/12/29 10:41:45;;;;;;;3.47;1.37;;;10.10;99.90;;;;;;4997778;28;20038;-84
2023/12/29 10:44:10;;;;;;;1.77;1.30;;;10.10;99.90;;;;;;4995821;28;20034;-84
2023/12/29 10:46:36;;;;;;;3.60;1.43;;;10.10;99.90;;;;;;4998640;28;20037;-84
2023/12/29 10:49:12;;;;;;;2.03;1.10;;;10.10;99.90;;;;;;4999564;28;20037;-84
2023/12/29 10:51:38;;;;;;;2.10;1.40;;;10.10;99.90;;;;;;4998425;28;20461;-84
2023/12/29 10:54:04;;;;;;;3.93;1.40;;;10.10;99.90;;;;;;4997207;28;20034;-84
2023/12/29 10:56:33;;;;;;;2.23;1.40;;;10.10;99.90;;;;;;4997852;28;20030;-84
2023/12/29 10:59:05;;;;;;;3.03;1.30;;;10.10;99.90;;;;;;4997042;28;20034;-84
2023/12/29 11:01:33;;;;;;;4.67;1.40;;;10.10;99.90;;;;;;4997792;28;20041;-84
2023/12/29 11:04:03;;;;;;;2.10;1.50;;;10.20;99.90;;;;;;4995766;28;20041;-84
2023/12/29 11:06:38;;;;;;;1.80;1.30;;;10.10;99.90;;;;;;4995496;28;20031;-85
2023/12/29 11:09:05;;;;;;;2.92;1.40;;;10.10;99.90;;;;;;4995763;28;20110;-84
2023/12/29 11:11:31;;;;;;;3.83;1.60;;;10.20;99.90;;;;;;4995619;28;20049;-85
2023/12/29 11:13:57;;;;;;;2.07;1.47;;;10.10;99.90;;;;;;4994873;28;20069;-84
2023/12/29 11:16:24;;;;;;;2.43;1.50;;;10.20;99.90;;;;;;4977055;28;20034;-84
2023/12/29 11:18:51;;;;;;;3.17;1.40;;;10.20;99.90;;;;;;4979088;28;20038;-84
2023/12/29 11:21:17;;;;;;;4.03;1.57;;;10.20;99.90;;;;;;4994583;28;20027;-85
2023/12/29 11:23:43;;;;;;;2.20;1.40;;;10.20;99.90;;;;;;4996194;28;20041;-85
2023/12/29 11:26:09;;;;;;;2.13;1.40;;;10.20;99.90;;;;;;4994637;28;20034;-84
2023/12/29 11:28:34;;;;;;;2.57;1.40;;;10.30;99.90;;;;;;4997990;28;20108;-84
2023/12/29 11:31:00;;;;;;;2.33;1.47;;;10.30;99.90;;;;;;4992308;28;20037;-84
2023/12/29 11:33:38;;;;;;;2.97;1.80;;;10.30;99.90;;;;;;4996471;28;20037;-84
2023/12/29 11:36:16;;;;;;;1.97;1.30;;;10.40;99.90;;;;;;4995161;28;20116;-84
2023/12/29 11:39:00;;;;;;;1.77;1.43;;;10.50;99.90;;;;;;4993728;28;20034;-84
2023/12/29 11:41:37;;;;;;;2.47;1.53;;;10.50;99.90;;;;;;4996119;28;20113;-84
2023/12/29 11:44:02;;;;;;;3.77;1.60;;;10.60;99.90;;;;;;4995262;28;20038;-85
2023/12/29 11:46:39;;;;;;;5.80;2.00;;;10.60;99.90;;;;;;4995444;28;20037;-84
2023/12/29 11:49:05;;;;;;;2.93;1.67;;;10.60;99.90;;;;;;4997901;28;20170;-84
2023/12/29 11:51:43;;;;;;;1.93;1.30;;;10.70;99.90;;;;;;4994754;28;20050;-84
2023/12/29 11:54:08;;;;;;;1.33;1.17;;;10.70;99.90;;;;;;5000545;28;20060;-84
2023/12/29 11:56:40;;;;;;;2.00;1.40;;;10.80;99.90;;;;;;4999119;28;20097;-83
2023/12/29 11:59:24;;;;;;;2.63;1.57;;;10.90;99.90;;;;;;4984651;28;20041;-84
2023/12/29 12:01:57;;;;;;;3.27;1.90;;;10.90;99.90;;;;;;4999975;28;20042;-83
2023/12/29 12:04:42;;;;;;;1.90;1.30;;;11.10;99.90;;;;;;5002312;28;20049;-84
2023/12/29 12:07:23;;;;;;;1.80;1.30;;;11.10;99.90;;;;;;4978584;28;20524;-84
2023/12/29 12:09:50;;;;;;;4.97;2.00;;;11.10;99.90;;;;;;4997479;28;20030;-84
2023/12/29 12:12:40;;;;;;;1.90;1.30;;;11.20;99.90;;;;;;4996479;28;20045;-84
2023/12/29 12:15:31;;;;;;;1.90;1.60;;;11.20;99.90;;;;;;5000075;28;20026;-85
2023/12/29 12:18:06;;;;;;;2.70;1.50;;;11.30;99.90;;;;;;4999371;28;20361;-84
2023/12/29 12:20:32;;;;;;;1.90;1.20;;;11.20;99.90;;;;;;4997896;28;20089;-85
2023/12/29 12:22:59;;;;;;;2.00;1.30;;;11.20;99.90;;;;;;4999059;28;20036;-84
2023/12/29 12:25:29;;;;;;;1.77;1.30;;;11.20;99.90;;;;;;4999496;28;20089;-84
2023/12/29 12:27:55;;;;;;;3.73;1.20;;;11.20;99.90;;;;;;4999835;28;20927;-84
2023/12/29 12:30:20;;;;;;;3.03;1.40;;;11.40;99.90;;;;;;4999201;28;20030;-83
2023/12/29 12:32:46;;;;;;;2.50;1.50;;;11.30;99.90;;;;;;4999299;28;20029;-84
2023/12/29 12:35:16;;;;;;;1.93;1.17;;;11.30;99.90;;;;;;4997269;28;20030;-84
2023/12/29 12:37:41;;;;;;;2.37;1.40;;;11.20;99.90;;;;;;4981506;28;20076;-84
2023/12/29 12:40:08;;;;;;;2.30;1.30;;;11.20;99.90;;;;;;4998673;28;20125;-84
2023/12/29 12:42:39;;;;;;;2.00;1.20;;;11.20;99.90;;;;;;5000168;28;20446;-84
2023/12/29 12:45:11;;;;;;;1.97;1.17;;;11.20;99.90;;;;;;4982315;28;20026;-84
2023/12/29 12:47:45;;;;;;;2.23;1.57;;;11.20;99.90;;;;;;5000317;28;20034;-84
2023/12/29 12:50:12;;;;;;;2.40;1.40;;;11.20;99.90;;;;;;4999847;28;20053;-84
2023/12/29 12:52:38;;;;;;;2.90;1.23;;;11.30;99.90;;;;;;4998639;28;20094;-84
2023/12/29 12:55:05;;;;;;;1.90;1.17;;;11.30;99.90;;;;;;4998106;28;21048;-84